sensor_id;sensor_type;location;lat;lon;timestamp;P1;durP1;ratioP1;P2;durP2;ratioP2
66421;SDS011;53228;51.380;0.098;2023-09-07T00:02:13;22.85;;;13.18;;
66421;SDS011;53228;51.380;0.098;2023-09-07T00:04:41;22.30;;;12.82;;
66421;SDS011;53228;51.380;0.098;2023-09-07T00:07:10;17.50;;;11.63;;
66421;SDS011;53228;51.380;0.098;2023-09-07T00:09:38;19.27;;;11.73;;
66421;SDS011;53228;51.380;0.098;2023-09-07T00:12:06;15.68;;;10.77;;
66421;SDS011;53228;51.380;0.098;2023-09-07T00:14:33;19.10;;;10.77;;
66421;SDS011;53228;51.380;0.098;2023-09-07T00:17:01;18.30;;;11.18;;
66421;SDS011;53228;51.380;0.098;2023-09-07T00:19:30;17.42;;;10.50;;
66421;SDS011;53228;51.380;0.098;2023-09-07T00:21:59;18.52;;;11.73;;
66421;SDS011;53228;51.380;0.098;2023-09-07T00:24:26;18.27;;;12.00;;
66421;SDS011;53228;51.380;0.098;2023-09-07T00:26:54;16.77;;;10.75;;
66421;SDS011;53228;51.380;0.098;2023-09-07T00:29:22;19.58;;;11.35;;
66421;SDS011;53228;51.380;0.098;2023-09-07T00:31:49;18.98;;;11.02;;
66421;SDS011;53228;51.380;0.098;2023-09-07T00:34:17;19.58;;;11.20;;
66421;SDS011;53228;51.380;0.098;2023-09-07T00:36:45;19.02;;;11.55;;
66421;SDS011;53228;51.380;0.098;2023-09-07T00:39:12;19.00;;;10.88;;
66421;SDS011;53228;51.380;0.098;2023-09-07T00:41:40;20.52;;;9.38;;
66421;SDS011;53228;51.380;0.098;2023-09-07T00:44:08;16.15;;;10.50;;
66421;SDS011;53228;51.380;0.098;2023-09-07T00:46:36;19.40;;;10.27;;
66421;SDS011;53228;51.380;0.098;2023-09-07T00:49:04;16.75;;;10.18;;
66421;SDS011;53228;51.380;0.098;2023-09-07T00:51:31;15.25;;;9.45;;
66421;SDS011;53228;51.380;0.098;2023-09-07T00:54:00;17.50;;;9.57;;
66421;SDS011;53228;51.380;0.098;2023-09-07T00:56:28;15.35;;;9.52;;
66421;SDS011;53228;51.380;0.098;2023-09-07T00:58:57;16.52;;;10.15;;
66421;SDS011;53228;51.380;0.098;2023-09-07T01:01:29;15.98;;;9.68;;
66421;SDS011;53228;51.380;0.098;2023-09-07T01:03:58;13.77;;;9.30;;
66421;SDS011;53228;51.380;0.098;2023-09-07T01:09:10;19.65;;;10.00;;
66421;SDS011;53228;51.380;0.098;2023-09-07T01:11:44;16.48;;;9.43;;
66421;SDS011;53228;51.380;0.098;2023-09-07T01:14:12;15.77;;;10.00;;
66421;SDS011;53228;51.380;0.098;2023-09-07T01:16:39;16.83;;;9.52;;
66421;SDS011;53228;51.380;0.098;2023-09-07T01:19:08;15.65;;;9.25;;
66421;SDS011;53228;51.380;0.098;2023-09-07T01:21:38;13.98;;;9.15;;
66421;SDS011;53228;51.380;0.098;2023-09-07T01:24:06;15.48;;;8.98;;
66421;SDS011;53228;51.380;0.098;2023-09-07T01:26:36;18.05;;;10.05;;
66421;SDS011;53228;51.380;0.098;2023-09-07T01:29:08;18.25;;;10.02;;
66421;SDS011;53228;51.380;0.098;2023-09-07T01:31:36;13.40;;;9.27;;
66421;SDS011;53228;51.380;0.098;2023-09-07T01:34:06;15.88;;;9.13;;
66421;SDS011;53228;51.380;0.098;2023-09-07T01:36:34;18.80;;;10.40;;
66421;SDS011;53228;51.380;0.098;2023-09-07T01:39:03;16.52;;;9.70;;
66421;SDS011;53228;51.380;0.098;2023-09-07T01:41:33;17.45;;;10.57;;
66421;SDS011;53228;51.380;0.098;2023-09-07T01:44:01;16.02;;;9.15;;
66421;SDS011;53228;51.380;0.098;2023-09-07T01:46:29;14.55;;;9.07;;
66421;SDS011;53228;51.380;0.098;2023-09-07T01:48:57;14.50;;;9.35;;
66421;SDS011;53228;51.380;0.098;2023-09-07T01:51:25;20.73;;;11.32;;
66421;SDS011;53228;51.380;0.098;2023-09-07T01:53:55;14.85;;;9.90;;
66421;SDS011;53228;51.380;0.098;2023-09-07T01:56:22;16.58;;;10.13;;
66421;SDS011;53228;51.380;0.098;2023-09-07T01:58:50;15.77;;;9.65;;
66421;SDS011;53228;51.380;0.098;2023-09-07T02:01:25;15.77;;;9.63;;
66421;SDS011;53228;51.380;0.098;2023-09-07T02:03:56;15.27;;;9.45;;
66421;SDS011;53228;51.380;0.098;2023-09-07T02:06:24;17.33;;;9.82;;
66421;SDS011;53228;51.380;0.098;2023-09-07T02:08:52;11.88;;;8.73;;
66421;SDS011;53228;51.380;0.098;2023-09-07T02:11:21;15.70;;;9.02;;
66421;SDS011;53228;51.380;0.098;2023-09-07T02:13:49;13.85;;;8.02;;
66421;SDS011;53228;51.380;0.098;2023-09-07T02:16:17;12.18;;;8.15;;
66421;SDS011;53228;51.380;0.098;2023-09-07T02:18:48;13.77;;;8.65;;
66421;SDS011;53228;51.380;0.098;2023-09-07T02:21:18;11.73;;;7.82;;
66421;SDS011;53228;51.380;0.098;2023-09-07T02:23:47;11.60;;;7.30;;
66421;SDS011;53228;51.380;0.098;2023-09-07T02:26:15;14.38;;;9.02;;
66421;SDS011;53228;51.380;0.098;2023-09-07T02:28:43;14.32;;;8.68;;
66421;SDS011;53228;51.380;0.098;2023-09-07T02:31:11;13.65;;;8.88;;
66421;SDS011;53228;51.380;0.098;2023-09-07T02:33:38;14.57;;;9.43;;
66421;SDS011;53228;51.380;0.098;2023-09-07T02:36:06;16.58;;;9.30;;
66421;SDS011;53228;51.380;0.098;2023-09-07T02:38:34;12.40;;;8.63;;
66421;SDS011;53228;51.380;0.098;2023-09-07T02:41:02;13.77;;;9.15;;
66421;SDS011;53228;51.380;0.098;2023-09-07T02:43:30;16.35;;;8.38;;
66421;SDS011;53228;51.380;0.098;2023-09-07T02:45:58;10.80;;;7.85;;
66421;SDS011;53228;51.380;0.098;2023-09-07T02:48:26;11.15;;;7.82;;
66421;SDS011;53228;51.380;0.098;2023-09-07T02:50:54;11.30;;;7.65;;
66421;SDS011;53228;51.380;0.098;2023-09-07T02:53:26;15.25;;;8.10;;
66421;SDS011;53228;51.380;0.098;2023-09-07T02:55:54;14.75;;;8.38;;
66421;SDS011;53228;51.380;0.098;2023-09-07T02:58:22;11.18;;;6.93;;
66421;SDS011;53228;51.380;0.098;2023-09-07T03:00:51;14.02;;;8.35;;
66421;SDS011;53228;51.380;0.098;2023-09-07T03:03:21;10.55;;;6.70;;
66421;SDS011;53228;51.380;0.098;2023-09-07T03:05:50;13.23;;;8.23;;
66421;SDS011;53228;51.380;0.098;2023-09-07T03:08:17;12.32;;;7.30;;
66421;SDS011;53228;51.380;0.098;2023-09-07T03:10:45;15.27;;;6.97;;
66421;SDS011;53228;51.380;0.098;2023-09-07T03:13:13;15.00;;;8.10;;
66421;SDS011;53228;51.380;0.098;2023-09-07T03:15:42;13.15;;;7.82;;
66421;SDS011;53228;51.380;0.098;2023-09-07T03:18:12;11.07;;;7.53;;
66421;SDS011;53228;51.380;0.098;2023-09-07T03:20:41;12.00;;;8.10;;
66421;SDS011;53228;51.380;0.098;2023-09-07T03:23:09;13.18;;;8.30;;
66421;SDS011;53228;51.380;0.098;2023-09-07T03:25:37;14.20;;;8.80;;
66421;SDS011;53228;51.380;0.098;2023-09-07T03:28:05;14.38;;;9.38;;
66421;SDS011;53228;51.380;0.098;2023-09-07T03:33:04;16.50;;;9.52;;
66421;SDS011;53228;51.380;0.098;2023-09-07T03:35:32;14.95;;;9.23;;
66421;SDS011;53228;51.380;0.098;2023-09-07T03:38:00;14.07;;;9.35;;
66421;SDS011;53228;51.380;0.098;2023-09-07T03:40:28;17.02;;;10.13;;
66421;SDS011;53228;51.380;0.098;2023-09-07T03:42:56;15.38;;;9.82;;
66421;SDS011;53228;51.380;0.098;2023-09-07T03:45:25;14.48;;;9.10;;
66421;SDS011;53228;51.380;0.098;2023-09-07T03:47:53;13.68;;;9.38;;
66421;SDS011;53228;51.380;0.098;2023-09-07T03:50:20;13.02;;;9.00;;
66421;SDS011;53228;51.380;0.098;2023-09-07T03:52:48;15.43;;;8.60;;
66421;SDS011;53228;51.380;0.098;2023-09-07T03:55:16;13.20;;;9.50;;
66421;SDS011;53228;51.380;0.098;2023-09-07T03:57:47;16.58;;;9.65;;
66421;SDS011;53228;51.380;0.098;2023-09-07T04:00:14;14.60;;;9.10;;
66421;SDS011;53228;51.380;0.098;2023-09-07T04:02:46;14.38;;;8.98;;
66421;SDS011;53228;51.380;0.098;2023-09-07T04:05:14;12.32;;;8.60;;
66421;SDS011;53228;51.380;0.098;2023-09-07T04:07:42;14.02;;;8.77;;
66421;SDS011;53228;51.380;0.098;2023-09-07T04:10:09;13.45;;;9.52;;
66421;SDS011;53228;51.380;0.098;2023-09-07T04:12:37;12.82;;;8.80;;
66421;SDS011;53228;51.380;0.098;2023-09-07T04:15:05;15.00;;;9.55;;
66421;SDS011;53228;51.380;0.098;2023-09-07T04:17:33;11.57;;;8.85;;
66421;SDS011;53228;51.380;0.098;2023-09-07T04:20:08;15.75;;;8.85;;
66421;SDS011;53228;51.380;0.098;2023-09-07T04:22:36;11.80;;;8.10;;
66421;SDS011;53228;51.380;0.098;2023-09-07T04:25:04;13.13;;;8.35;;
66421;SDS011;53228;51.380;0.098;2023-09-07T04:27:32;13.82;;;8.55;;
66421;SDS011;53228;51.380;0.098;2023-09-07T04:30:03;15.50;;;8.68;;
66421;SDS011;53228;51.380;0.098;2023-09-07T04:32:32;16.63;;;8.98;;
66421;SDS011;53228;51.380;0.098;2023-09-07T04:34:59;12.35;;;9.07;;
66421;SDS011;53228;51.380;0.098;2023-09-07T04:37:30;16.55;;;9.57;;
66421;SDS011;53228;51.380;0.098;2023-09-07T04:39:58;12.30;;;8.23;;
66421;SDS011;53228;51.380;0.098;2023-09-07T04:42:25;13.82;;;8.18;;
66421;SDS011;53228;51.380;0.098;2023-09-07T04:44:53;12.57;;;8.98;;
66421;SDS011;53228;51.380;0.098;2023-09-07T04:47:20;16.05;;;9.27;;
66421;SDS011;53228;51.380;0.098;2023-09-07T04:49:49;14.38;;;9.85;;
66421;SDS011;53228;51.380;0.098;2023-09-07T04:52:20;14.35;;;9.43;;
66421;SDS011;53228;51.380;0.098;2023-09-07T04:54:47;11.60;;;8.18;;
66421;SDS011;53228;51.380;0.098;2023-09-07T04:57:17;13.45;;;9.10;;
66421;SDS011;53228;51.380;0.098;2023-09-07T04:59:46;23.30;;;9.63;;
66421;SDS011;53228;51.380;0.098;2023-09-07T05:02:13;14.25;;;9.07;;
66421;SDS011;53228;51.380;0.098;2023-09-07T05:04:41;14.40;;;8.95;;
66421;SDS011;53228;51.380;0.098;2023-09-07T05:07:09;14.07;;;8.98;;
66421;SDS011;53228;51.380;0.098;2023-09-07T05:09:37;16.40;;;9.40;;
66421;SDS011;53228;51.380;0.098;2023-09-07T05:12:05;16.58;;;9.55;;
66421;SDS011;53228;51.380;0.098;2023-09-07T05:14:33;18.45;;;10.93;;
66421;SDS011;53228;51.380;0.098;2023-09-07T05:17:01;20.60;;;9.73;;
66421;SDS011;53228;51.380;0.098;2023-09-07T05:19:30;15.15;;;10.73;;
66421;SDS011;53228;51.380;0.098;2023-09-07T05:21:58;13.63;;;9.35;;
66421;SDS011;53228;51.380;0.098;2023-09-07T05:24:25;15.63;;;9.30;;
66421;SDS011;53228;51.380;0.098;2023-09-07T05:26:53;15.07;;;9.40;;
66421;SDS011;53228;51.380;0.098;2023-09-07T05:29:21;17.05;;;11.48;;
66421;SDS011;53228;51.380;0.098;2023-09-07T05:31:49;15.02;;;9.70;;
66421;SDS011;53228;51.380;0.098;2023-09-07T05:34:17;15.73;;;9.20;;
66421;SDS011;53228;51.380;0.098;2023-09-07T05:36:45;18.00;;;10.05;;
66421;SDS011;53228;51.380;0.098;2023-09-07T05:39:13;14.98;;;9.15;;
66421;SDS011;53228;51.380;0.098;2023-09-07T05:41:41;14.25;;;9.35;;
66421;SDS011;53228;51.380;0.098;2023-09-07T05:44:09;20.17;;;10.57;;
66421;SDS011;53228;51.380;0.098;2023-09-07T05:46:36;15.55;;;10.35;;
66421;SDS011;53228;51.380;0.098;2023-09-07T05:49:04;18.63;;;9.80;;
66421;SDS011;53228;51.380;0.098;2023-09-07T05:51:32;18.73;;;10.57;;
66421;SDS011;53228;51.380;0.098;2023-09-07T05:54:00;15.38;;;9.95;;
66421;SDS011;53228;51.380;0.098;2023-09-07T05:56:29;14.63;;;9.30;;
66421;SDS011;53228;51.380;0.098;2023-09-07T05:58:57;17.83;;;9.48;;
66421;SDS011;53228;51.380;0.098;2023-09-07T06:01:24;17.70;;;10.65;;
66421;SDS011;53228;51.380;0.098;2023-09-07T06:03:52;19.90;;;10.57;;
66421;SDS011;53228;51.380;0.098;2023-09-07T06:06:21;17.75;;;10.07;;
66421;SDS011;53228;51.380;0.098;2023-09-07T06:08:48;15.90;;;9.88;;
66421;SDS011;53228;51.380;0.098;2023-09-07T06:11:16;19.80;;;9.82;;
66421;SDS011;53228;51.380;0.098;2023-09-07T06:13:44;17.33;;;9.85;;
66421;SDS011;53228;51.380;0.098;2023-09-07T06:16:13;18.13;;;10.10;;
66421;SDS011;53228;51.380;0.098;2023-09-07T06:18:41;15.82;;;9.57;;
66421;SDS011;53228;51.380;0.098;2023-09-07T06:21:09;16.42;;;10.93;;
66421;SDS011;53228;51.380;0.098;2023-09-07T06:23:36;20.27;;;11.63;;
66421;SDS011;53228;51.380;0.098;2023-09-07T06:26:04;19.45;;;10.70;;
66421;SDS011;53228;51.380;0.098;2023-09-07T06:28:32;16.02;;;10.07;;
66421;SDS011;53228;51.380;0.098;2023-09-07T06:31:00;17.20;;;10.10;;
66421;SDS011;53228;51.380;0.098;2023-09-07T06:33:28;15.48;;;9.40;;
66421;SDS011;53228;51.380;0.098;2023-09-07T06:35:56;15.55;;;8.45;;
66421;SDS011;53228;51.380;0.098;2023-09-07T06:38:28;12.52;;;8.10;;
66421;SDS011;53228;51.380;0.098;2023-09-07T06:40:57;14.27;;;7.90;;
66421;SDS011;53228;51.380;0.098;2023-09-07T06:43:24;12.02;;;8.18;;
66421;SDS011;53228;51.380;0.098;2023-09-07T06:45:54;12.85;;;8.73;;
66421;SDS011;53228;51.380;0.098;2023-09-07T06:48:22;16.02;;;8.40;;
66421;SDS011;53228;51.380;0.098;2023-09-07T06:50:49;13.52;;;7.82;;
66421;SDS011;53228;51.380;0.098;2023-09-07T06:53:17;14.98;;;8.60;;
66421;SDS011;53228;51.380;0.098;2023-09-07T06:55:45;12.80;;;8.23;;
66421;SDS011;53228;51.380;0.098;2023-09-07T06:58:13;13.18;;;8.45;;
66421;SDS011;53228;51.380;0.098;2023-09-07T07:00:41;13.57;;;7.97;;
66421;SDS011;53228;51.380;0.098;2023-09-07T07:05:38;8.43;;;6.57;;
66421;SDS011;53228;51.380;0.098;2023-09-07T07:08:06;11.48;;;6.82;;
66421;SDS011;53228;51.380;0.098;2023-09-07T07:10:34;15.65;;;7.82;;
66421;SDS011;53228;51.380;0.098;2023-09-07T07:13:01;9.88;;;7.30;;
66421;SDS011;53228;51.380;0.098;2023-09-07T07:15:30;13.27;;;7.53;;
66421;SDS011;53228;51.380;0.098;2023-09-07T07:17:57;13.18;;;8.23;;
66421;SDS011;53228;51.380;0.098;2023-09-07T07:20:25;13.77;;;8.13;;
66421;SDS011;53228;51.380;0.098;2023-09-07T07:22:53;10.65;;;8.00;;
66421;SDS011;53228;51.380;0.098;2023-09-07T07:25:21;14.52;;;7.18;;
66421;SDS011;53228;51.380;0.098;2023-09-07T07:27:48;13.02;;;7.90;;
66421;SDS011;53228;51.380;0.098;2023-09-07T07:30:16;11.95;;;7.38;;
66421;SDS011;53228;51.380;0.098;2023-09-07T07:32:44;12.63;;;7.40;;
66421;SDS011;53228;51.380;0.098;2023-09-07T07:35:12;10.45;;;7.53;;
66421;SDS011;53228;51.380;0.098;2023-09-07T07:37:40;11.60;;;7.82;;
66421;SDS011;53228;51.380;0.098;2023-09-07T07:40:08;12.88;;;8.13;;
66421;SDS011;53228;51.380;0.098;2023-09-07T07:42:36;12.68;;;7.72;;
66421;SDS011;53228;51.380;0.098;2023-09-07T07:45:04;9.90;;;6.80;;
66421;SDS011;53228;51.380;0.098;2023-09-07T07:47:32;12.48;;;7.72;;
66421;SDS011;53228;51.380;0.098;2023-09-07T07:50:00;14.27;;;7.22;;
66421;SDS011;53228;51.380;0.098;2023-09-07T07:52:29;11.02;;;6.65;;
66421;SDS011;53228;51.380;0.098;2023-09-07T07:54:57;10.88;;;6.88;;
66421;SDS011;53228;51.380;0.098;2023-09-07T07:57:25;13.55;;;7.50;;
66421;SDS011;53228;51.380;0.098;2023-09-07T07:59:53;9.27;;;7.07;;
66421;SDS011;53228;51.380;0.098;2023-09-07T08:02:21;11.25;;;7.07;;
66421;SDS011;53228;51.380;0.098;2023-09-07T08:04:49;10.57;;;7.00;;
66421;SDS011;53228;51.380;0.098;2023-09-07T08:07:17;10.45;;;6.50;;
66421;SDS011;53228;51.380;0.098;2023-09-07T08:09:44;14.43;;;7.60;;
66421;SDS011;53228;51.380;0.098;2023-09-07T08:12:12;16.40;;;7.18;;
66421;SDS011;53228;51.380;0.098;2023-09-07T08:14:40;12.20;;;6.88;;
66421;SDS011;53228;51.380;0.098;2023-09-07T08:17:09;12.73;;;7.13;;
66421;SDS011;53228;51.380;0.098;2023-09-07T08:19:37;11.27;;;7.30;;
66421;SDS011;53228;51.380;0.098;2023-09-07T08:22:05;11.40;;;6.60;;
66421;SDS011;53228;51.380;0.098;2023-09-07T08:24:33;10.63;;;6.32;;
66421;SDS011;53228;51.380;0.098;2023-09-07T08:27:02;12.02;;;6.78;;
66421;SDS011;53228;51.380;0.098;2023-09-07T08:29:30;10.55;;;6.80;;
66421;SDS011;53228;51.380;0.098;2023-09-07T08:31:59;14.15;;;6.85;;
66421;SDS011;53228;51.380;0.098;2023-09-07T08:34:31;11.05;;;5.65;;
66421;SDS011;53228;51.380;0.098;2023-09-07T08:36:59;8.70;;;6.60;;
66421;SDS011;53228;51.380;0.098;2023-09-07T08:39:27;13.50;;;6.45;;
66421;SDS011;53228;51.380;0.098;2023-09-07T08:41:55;13.60;;;7.18;;
66421;SDS011;53228;51.380;0.098;2023-09-07T08:44:29;13.20;;;6.90;;
66421;SDS011;53228;51.380;0.098;2023-09-07T08:46:59;11.35;;;7.32;;
66421;SDS011;53228;51.380;0.098;2023-09-07T08:49:30;9.52;;;6.60;;
66421;SDS011;53228;51.380;0.098;2023-09-07T08:52:00;9.90;;;6.60;;
66421;SDS011;53228;51.380;0.098;2023-09-07T08:54:30;9.32;;;6.70;;
66421;SDS011;53228;51.380;0.098;2023-09-07T08:56:58;8.85;;;6.68;;
66421;SDS011;53228;51.380;0.098;2023-09-07T08:59:30;13.50;;;7.55;;
66421;SDS011;53228;51.380;0.098;2023-09-07T09:01:58;12.75;;;7.25;;
66421;SDS011;53228;51.380;0.098;2023-09-07T09:04:27;9.57;;;7.03;;
66421;SDS011;53228;51.380;0.098;2023-09-07T09:06:56;14.15;;;6.57;;
66421;SDS011;53228;51.380;0.098;2023-09-07T09:09:24;8.75;;;6.68;;
66421;SDS011;53228;51.380;0.098;2023-09-07T09:11:52;8.77;;;6.13;;
66421;SDS011;53228;51.380;0.098;2023-09-07T09:14:20;8.50;;;5.82;;
66421;SDS011;53228;51.380;0.098;2023-09-07T09:16:50;10.13;;;6.20;;
66421;SDS011;53228;51.380;0.098;2023-09-07T09:19:18;7.30;;;5.55;;
66421;SDS011;53228;51.380;0.098;2023-09-07T09:21:46;7.82;;;5.88;;
66421;SDS011;53228;51.380;0.098;2023-09-07T09:24:17;6.75;;;5.38;;
66421;SDS011;53228;51.380;0.098;2023-09-07T09:26:45;11.32;;;6.00;;
66421;SDS011;53228;51.380;0.098;2023-09-07T09:29:13;9.35;;;5.68;;
66421;SDS011;53228;51.380;0.098;2023-09-07T09:31:42;10.63;;;6.07;;
66421;SDS011;53228;51.380;0.098;2023-09-07T09:34:11;12.48;;;6.53;;
66421;SDS011;53228;51.380;0.098;2023-09-07T09:36:40;8.65;;;6.05;;
66421;SDS011;53228;51.380;0.098;2023-09-07T09:39:09;9.00;;;5.40;;
66421;SDS011;53228;51.380;0.098;2023-09-07T09:41:37;13.85;;;6.45;;
66421;SDS011;53228;51.380;0.098;2023-09-07T09:46:34;8.27;;;6.15;;
66421;SDS011;53228;51.380;0.098;2023-09-07T09:49:03;9.40;;;5.97;;
66421;SDS011;53228;51.380;0.098;2023-09-07T09:54:00;9.80;;;6.50;;
66421;SDS011;53228;51.380;0.098;2023-09-07T09:56:29;8.10;;;5.43;;
66421;SDS011;53228;51.380;0.098;2023-09-07T09:58:57;17.42;;;6.90;;
66421;SDS011;53228;51.380;0.098;2023-09-07T10:01:25;11.05;;;6.40;;
66421;SDS011;53228;51.380;0.098;2023-09-07T10:03:53;10.68;;;7.20;;
66421;SDS011;53228;51.380;0.098;2023-09-07T10:06:26;10.10;;;6.32;;
66421;SDS011;53228;51.380;0.098;2023-09-07T10:09:01;12.07;;;6.80;;
66421;SDS011;53228;51.380;0.098;2023-09-07T10:11:38;11.25;;;7.07;;
66421;SDS011;53228;51.380;0.098;2023-09-07T10:14:07;9.07;;;5.93;;
66421;SDS011;53228;51.380;0.098;2023-09-07T10:19:19;9.70;;;6.60;;
66421;SDS011;53228;51.380;0.098;2023-09-07T10:21:54;11.50;;;6.57;;
66421;SDS011;53228;51.380;0.098;2023-09-07T10:24:24;9.98;;;6.53;;
66421;SDS011;53228;51.380;0.098;2023-09-07T10:27:06;11.75;;;6.97;;
66421;SDS011;53228;51.380;0.098;2023-09-07T10:29:45;13.10;;;6.93;;
66421;SDS011;53228;51.380;0.098;2023-09-07T10:32:21;9.25;;;5.53;;
66421;SDS011;53228;51.380;0.098;2023-09-07T10:34:50;9.25;;;5.75;;
66421;SDS011;53228;51.380;0.098;2023-09-07T10:37:17;10.05;;;5.80;;
66421;SDS011;53228;51.380;0.098;2023-09-07T10:39:46;6.70;;;5.85;;
66421;SDS011;53228;51.380;0.098;2023-09-07T10:42:21;10.73;;;6.18;;
66421;SDS011;53228;51.380;0.098;2023-09-07T10:44:51;7.32;;;5.70;;
66421;SDS011;53228;51.380;0.098;2023-09-07T10:49:48;7.25;;;5.75;;
66421;SDS011;53228;51.380;0.098;2023-09-07T10:52:16;8.13;;;6.13;;
66421;SDS011;53228;51.380;0.098;2023-09-07T10:54:44;7.90;;;5.47;;
66421;SDS011;53228;51.380;0.098;2023-09-07T10:57:22;6.88;;;5.38;;
66421;SDS011;53228;51.380;0.098;2023-09-07T10:59:50;8.60;;;5.05;;
66421;SDS011;53228;51.380;0.098;2023-09-07T11:02:21;13.82;;;5.53;;
66421;SDS011;53228;51.380;0.098;2023-09-07T11:04:49;8.00;;;4.90;;
66421;SDS011;53228;51.380;0.098;2023-09-07T11:07:17;6.72;;;5.63;;
66421;SDS011;53228;51.380;0.098;2023-09-07T11:09:45;13.80;;;5.85;;
66421;SDS011;53228;51.380;0.098;2023-09-07T11:12:13;8.52;;;5.03;;
66421;SDS011;53228;51.380;0.098;2023-09-07T11:14:43;6.60;;;5.53;;
66421;SDS011;53228;51.380;0.098;2023-09-07T11:17:14;9.77;;;5.85;;
66421;SDS011;53228;51.380;0.098;2023-09-07T11:19:43;8.13;;;5.40;;
66421;SDS011;53228;51.380;0.098;2023-09-07T11:22:11;6.25;;;5.03;;
66421;SDS011;53228;51.380;0.098;2023-09-07T11:24:39;9.85;;;5.50;;
66421;SDS011;53228;51.380;0.098;2023-09-07T11:27:08;6.00;;;5.20;;
66421;SDS011;53228;51.380;0.098;2023-09-07T11:29:39;6.82;;;5.13;;
66421;SDS011;53228;51.380;0.098;2023-09-07T11:32:12;7.20;;;5.70;;
66421;SDS011;53228;51.380;0.098;2023-09-07T11:34:52;8.95;;;5.38;;
66421;SDS011;53228;51.380;0.098;2023-09-07T11:37:25;8.82;;;4.65;;
66421;SDS011;53228;51.380;0.098;2023-09-07T11:39:53;8.13;;;5.63;;
66421;SDS011;53228;51.380;0.098;2023-09-07T11:42:21;6.47;;;4.93;;
66421;SDS011;53228;51.380;0.098;2023-09-07T11:44:49;7.47;;;5.35;;
66421;SDS011;53228;51.380;0.098;2023-09-07T11:47:17;12.90;;;5.47;;
66421;SDS011;53228;51.380;0.098;2023-09-07T11:49:45;7.93;;;4.95;;
66421;SDS011;53228;51.380;0.098;2023-09-07T11:52:12;7.63;;;4.22;;
66421;SDS011;53228;51.380;0.098;2023-09-07T11:54:40;8.20;;;4.95;;
66421;SDS011;53228;51.380;0.098;2023-09-07T11:57:08;10.95;;;5.20;;
66421;SDS011;53228;51.380;0.098;2023-09-07T11:59:36;7.47;;;5.18;;
66421;SDS011;53228;51.380;0.098;2023-09-07T12:02:23;9.55;;;5.05;;
66421;SDS011;53228;51.380;0.098;2023-09-07T12:04:51;8.07;;;4.07;;
66421;SDS011;53228;51.380;0.098;2023-09-07T12:07:19;5.15;;;4.63;;
66421;SDS011;53228;51.380;0.098;2023-09-07T12:09:47;6.25;;;4.63;;
66421;SDS011;53228;51.380;0.098;2023-09-07T12:12:15;7.18;;;4.60;;
66421;SDS011;53228;51.380;0.098;2023-09-07T12:14:43;5.30;;;4.80;;
66421;SDS011;53228;51.380;0.098;2023-09-07T12:17:10;6.35;;;4.47;;
66421;SDS011;53228;51.380;0.098;2023-09-07T12:19:38;8.00;;;5.50;;
66421;SDS011;53228;51.380;0.098;2023-09-07T12:22:08;6.00;;;5.05;;
66421;SDS011;53228;51.380;0.098;2023-09-07T12:24:36;7.72;;;4.90;;
66421;SDS011;53228;51.380;0.098;2023-09-07T12:27:04;8.32;;;4.68;;
66421;SDS011;53228;51.380;0.098;2023-09-07T12:29:32;11.10;;;5.25;;
66421;SDS011;53228;51.380;0.098;2023-09-07T12:31:59;7.72;;;5.30;;
66421;SDS011;53228;51.380;0.098;2023-09-07T12:34:27;9.23;;;5.03;;
66421;SDS011;53228;51.380;0.098;2023-09-07T12:36:58;6.50;;;5.18;;
66421;SDS011;53228;51.380;0.098;2023-09-07T12:39:26;8.50;;;4.88;;
66421;SDS011;53228;51.380;0.098;2023-09-07T12:41:54;10.32;;;4.90;;
66421;SDS011;53228;51.380;0.098;2023-09-07T12:44:21;7.78;;;5.85;;
66421;SDS011;53228;51.380;0.098;2023-09-07T12:46:49;8.07;;;6.00;;
66421;SDS011;53228;51.380;0.098;2023-09-07T12:49:17;7.93;;;5.55;;
66421;SDS011;53228;51.380;0.098;2023-09-07T12:51:48;8.50;;;5.55;;
66421;SDS011;53228;51.380;0.098;2023-09-07T12:54:16;8.50;;;6.07;;
66421;SDS011;53228;51.380;0.098;2023-09-07T12:56:44;11.48;;;5.90;;
66421;SDS011;53228;51.380;0.098;2023-09-07T12:59:12;7.50;;;5.80;;
66421;SDS011;53228;51.380;0.098;2023-09-07T13:01:40;9.32;;;5.30;;
66421;SDS011;53228;51.380;0.098;2023-09-07T13:04:08;6.65;;;5.43;;
66421;SDS011;53228;51.380;0.098;2023-09-07T13:06:36;8.70;;;4.82;;
66421;SDS011;53228;51.380;0.098;2023-09-07T13:09:03;5.55;;;5.00;;
66421;SDS011;53228;51.380;0.098;2023-09-07T13:11:32;7.70;;;5.60;;
66421;SDS011;53228;51.380;0.098;2023-09-07T13:14:00;5.63;;;5.03;;
66421;SDS011;53228;51.380;0.098;2023-09-07T13:16:37;8.40;;;4.72;;
66421;SDS011;53228;51.380;0.098;2023-09-07T13:19:05;5.72;;;5.00;;
66421;SDS011;53228;51.380;0.098;2023-09-07T13:21:33;7.00;;;4.60;;
66421;SDS011;53228;51.380;0.098;2023-09-07T13:24:01;7.82;;;5.22;;
66421;SDS011;53228;51.380;0.098;2023-09-07T13:26:28;5.70;;;5.10;;
66421;SDS011;53228;51.380;0.098;2023-09-07T13:28:56;10.57;;;5.93;;
66421;SDS011;53228;51.380;0.098;2023-09-07T13:31:24;10.38;;;6.70;;
66421;SDS011;53228;51.380;0.098;2023-09-07T13:33:51;8.15;;;5.28;;
66421;SDS011;53228;51.380;0.098;2023-09-07T13:36:19;9.50;;;5.65;;
66421;SDS011;53228;51.380;0.098;2023-09-07T13:38:47;7.20;;;5.20;;
66421;SDS011;53228;51.380;0.098;2023-09-07T13:41:18;11.82;;;5.47;;
66421;SDS011;53228;51.380;0.098;2023-09-07T13:43:46;8.60;;;5.35;;
66421;SDS011;53228;51.380;0.098;2023-09-07T13:46:14;9.80;;;4.93;;
66421;SDS011;53228;51.380;0.098;2023-09-07T13:48:41;9.65;;;5.00;;
66421;SDS011;53228;51.380;0.098;2023-09-07T13:51:09;11.00;;;5.10;;
66421;SDS011;53228;51.380;0.098;2023-09-07T13:53:36;14.45;;;4.57;;
66421;SDS011;53228;51.380;0.098;2023-09-07T13:56:04;8.07;;;4.68;;
66421;SDS011;53228;51.380;0.098;2023-09-07T13:58:32;9.68;;;4.80;;
66421;SDS011;53228;51.380;0.098;2023-09-07T14:00:59;6.68;;;4.95;;
66421;SDS011;53228;51.380;0.098;2023-09-07T14:03:27;5.65;;;4.85;;
66421;SDS011;53228;51.380;0.098;2023-09-07T14:05:55;8.88;;;4.88;;
66421;SDS011;53228;51.380;0.098;2023-09-07T14:08:22;6.47;;;4.85;;
66421;SDS011;53228;51.380;0.098;2023-09-07T14:10:51;6.70;;;4.63;;
66421;SDS011;53228;51.380;0.098;2023-09-07T14:13:19;7.95;;;5.28;;
66421;SDS011;53228;51.380;0.098;2023-09-07T14:15:47;5.97;;;4.43;;
66421;SDS011;53228;51.380;0.098;2023-09-07T14:18:14;6.85;;;4.88;;
66421;SDS011;53228;51.380;0.098;2023-09-07T14:20:42;7.95;;;5.30;;
66421;SDS011;53228;51.380;0.098;2023-09-07T14:23:09;8.55;;;5.25;;
66421;SDS011;53228;51.380;0.098;2023-09-07T14:25:37;6.75;;;4.60;;
66421;SDS011;53228;51.380;0.098;2023-09-07T14:28:10;7.88;;;5.07;;
66421;SDS011;53228;51.380;0.098;2023-09-07T14:30:38;8.55;;;5.38;;
66421;SDS011;53228;51.380;0.098;2023-09-07T14:33:05;11.23;;;5.40;;
66421;SDS011;53228;51.380;0.098;2023-09-07T14:35:33;6.00;;;5.35;;
66421;SDS011;53228;51.380;0.098;2023-09-07T14:38:01;5.28;;;4.78;;
66421;SDS011;53228;51.380;0.098;2023-09-07T14:40:29;7.15;;;4.88;;
66421;SDS011;53228;51.380;0.098;2023-09-07T14:42:57;11.18;;;5.78;;
66421;SDS011;53228;51.380;0.098;2023-09-07T14:45:24;7.00;;;5.60;;
66421;SDS011;53228;51.380;0.098;2023-09-07T14:47:52;9.23;;;5.47;;
66421;SDS011;53228;51.380;0.098;2023-09-07T14:50:20;10.80;;;5.80;;
66421;SDS011;53228;51.380;0.098;2023-09-07T14:52:47;10.98;;;6.07;;
66421;SDS011;53228;51.380;0.098;2023-09-07T14:55:15;7.43;;;5.85;;
66421;SDS011;53228;51.380;0.098;2023-09-07T14:57:43;7.63;;;5.47;;
66421;SDS011;53228;51.380;0.098;2023-09-07T15:00:11;7.13;;;5.80;;
66421;SDS011;53228;51.380;0.098;2023-09-07T15:02:39;9.98;;;5.75;;
66421;SDS011;53228;51.380;0.098;2023-09-07T15:05:07;9.20;;;5.47;;